Time;durP1;ratioP1;P1;durP2;ratioP2;P2;SDS_P1;SDS_P2;PMS_P1;PMS_P2;Temp;Humidity;BMP_temperature;BMP_pressure;BME280_temperature;BME280_humidity;BME280_pressure;Samples;Min_cycle;Max_cycle;Signal;HPM_P1;HPM_P2
2023/06/05 00:02:47;;;;;;;1.80;1.67;;;;;;;19.25;42.67;97145.03;10382383;28;20042;-56
2023/06/05 00:08:07;;;;;;;2.05;1.60;;;;;;;19.25;42.83;97144.22;10370592;28;20133;-56
2023/06/05 00:13:27;;;;;;;3.35;1.83;;;;;;;19.25;42.87;97157.72;10389453;28;20042;-56
2023/06/05 00:18:48;;;;;;;2.33;1.40;;;;;;;19.24;42.80;97154.22;10382161;28;20042;-56
2023/06/05 00:24:07;;;;;;;2.45;1.70;;;;;;;19.24;42.82;97158.84;10381951;28;20061;-56
2023/06/05 00:29:27;;;;;;;1.50;1.40;;;;;;;19.23;42.93;97168.88;10381866;28;20049;-56
2023/06/05 00:34:49;;;;;;;2.47;1.50;;;;;;;19.24;42.82;97169.66;10392796;28;20196;-56
2023/06/05 00:40:09;;;;;;;2.00;1.60;;;;;;;19.23;42.93;97165.34;10378690;28;20049;-56
2023/06/05 00:45:29;;;;;;;1.40;1.30;;;;;;;19.22;43.04;97166.47;10392445;28;20038;-56
2023/06/05 00:50:48;;;;;;;1.70;1.60;;;;;;;19.21;43.08;97162.97;10378636;28;20042;-56
2023/06/05 00:56:08;;;;;;;1.52;1.40;;;;;;;19.21;43.00;97176.47;10371564;28;20064;-56
2023/06/05 01:01:28;;;;;;;2.13;1.60;;;;;;;19.21;43.07;97164.88;10383790;28;20050;-56
2023/06/05 01:06:50;;;;;;;2.00;1.65;;;;;;;19.21;43.20;97170.25;10381571;28;20091;-56
2023/06/05 01:12:20;;;;;;;1.92;1.70;;;;;;;19.19;42.94;97167.91;10423624;28;20058;-57
2023/06/05 01:17:47;;;;;;;2.28;1.65;;;;;;;19.20;43.00;97166.78;10441968;28;20042;-56
2023/06/05 01:23:07;;;;;;;1.98;1.73;;;;;;;19.19;43.05;97158.97;10390403;28;20038;-56
2023/06/05 01:28:29;;;;;;;1.63;1.52;;;;;;;19.19;43.01;97161.69;10436529;28;20049;-56
2023/06/05 01:34:01;;;;;;;2.08;1.75;;;;;;;19.18;42.97;97166.28;10427166;28;20058;-56
2023/06/05 01:39:22;;;;;;;1.98;1.70;;;;;;;19.19;43.10;97167.09;10439576;28;20042;-56
2023/06/05 01:44:42;;;;;;;1.90;1.65;;;;;;;19.17;42.98;97160.09;10420907;28;20058;-56
2023/06/05 01:50:02;;;;;;;2.35;1.75;;;;;;;19.17;43.10;97170.91;10381781;28;20406;-56
2023/06/05 01:55:26;;;;;;;3.20;1.90;;;;;;;19.17;43.08;97164.72;10381670;28;20046;-57
2023/06/05 02:00:46;;;;;;;1.98;1.77;;;;;;;19.16;43.06;97158.50;10384604;28;20561;-56
2023/06/05 02:06:06;;;;;;;1.92;1.80;;;;;;;19.17;43.13;97164.72;10379848;28;20056;-56
2023/06/05 02:11:26;;;;;;;1.73;1.42;;;;;;;19.17;43.10;97143.91;10390285;28;20397;-56
2023/06/05 02:16:47;;;;;;;2.25;1.58;;;;;;;19.16;43.15;97141.50;10390051;28;20099;-56
2023/06/05 02:22:07;;;;;;;3.17;2.10;;;;;;;19.15;43.17;97139.91;10439175;28;20115;-56
2023/06/05 02:27:26;;;;;;;2.22;2.00;;;;;;;19.15;43.33;97143.41;10379496;28;20072;-56
2023/06/05 02:32:46;;;;;;;2.78;1.90;;;;;;;19.14;43.33;97136.41;10378561;28;20068;-56
2023/06/05 02:38:12;;;;;;;2.33;1.80;;;;;;;19.13;43.29;97142.94;10428901;28;20050;-56
2023/06/05 02:43:32;;;;;;;2.25;1.85;;;;;;;19.14;43.30;97135.63;10442942;28;20046;-56
2023/06/05 02:48:52;;;;;;;3.17;1.83;;;;;;;19.13;43.48;97132.13;10384955;28;20046;-56
2023/06/05 02:54:11;;;;;;;2.13;1.90;;;;;;;19.12;43.53;97135.94;10431026;28;20501;-56
2023/06/05 02:59:31;;;;;;;2.55;2.22;;;;;;;19.13;43.47;97132.13;10442562;28;20061;-57
2023/06/05 03:04:53;;;;;;;2.17;1.95;;;;;;;19.12;43.45;97122.44;10443336;28;20046;-57
2023/06/05 03:10:15;;;;;;;2.40;2.10;;;;;;;19.12;43.43;97122.44;10444373;28;20046;-56
2023/06/05 03:15:36;;;;;;;2.42;2.03;;;;;;;19.12;43.62;97119.72;10364926;28;20050;-56
2023/06/05 03:20:57;;;;;;;3.42;1.92;;;;;;;19.12;43.56;97125.13;10383857;28;20049;-57
2023/06/05 03:26:16;;;;;;;2.25;1.90;;;;;;;19.11;43.64;97128.13;10428116;28;20490;-57
2023/06/05 03:31:36;;;;;;;2.50;2.30;;;;;;;19.11;43.79;97125.44;10386359;28;20049;-57
2023/06/05 03:36:58;;;;;;;1.98;1.77;;;;;;;19.10;43.62;97119.25;10441601;28;20042;-56
2023/06/05 03:42:18;;;;;;;2.40;2.00;;;;;;;19.10;43.66;97121.94;10451611;28;20094;-56
2023/06/05 03:47:39;;;;;;;2.35;2.15;;;;;;;19.10;43.68;97127.34;10456611;28;20041;-56
2023/06/05 03:53:04;;;;;;;2.15;1.95;;;;;;;19.11;43.76;97122.72;10432627;28;20046;-56
2023/06/05 03:58:26;;;;;;;2.92;2.10;;;;;;;19.10;43.97;97126.56;10451716;28;20041;-56
2023/06/05 04:03:47;;;;;;;2.33;2.13;;;;;;;19.11;43.97;97123.56;10428371;28;20202;-56
2023/06/05 04:09:13;;;;;;;2.33;2.10;;;;;;;19.11;43.94;97133.53;10474461;28;20475;-56
2023/06/05 04:14:35;;;;;;;2.57;2.37;;;;;;;19.10;43.91;97127.34;10443276;28;20042;-56
2023/06/05 04:19:55;;;;;;;3.20;2.35;;;;;;;19.09;43.88;97133.88;10385532;28;20478;-47
2023/06/05 04:25:15;;;;;;;2.30;2.10;;;;;;;19.11;44.00;97138.94;10394996;28;20076;-49
2023/06/05 04:30:36;;;;;;;2.30;2.10;;;;;;;19.12;43.85;97137.84;10427704;28;20037;-49
2023/06/05 04:35:56;;;;;;;3.08;2.70;;;;;;;19.12;44.25;97135.94;10384318;28;20045;-48
2023/06/05 04:41:16;;;;;;;3.42;2.50;;;;;;;19.13;44.60;97128.63;10460177;28;20046;-47
2023/06/05 04:46:38;;;;;;;4.63;2.60;;;;;;;19.15;44.81;97132.63;10427375;28;20049;-49
2023/06/05 04:51:59;;;;;;;3.58;2.50;;;;;;;19.17;45.03;97133.09;10432478;28;20103;-49
2023/06/05 04:57:19;;;;;;;5.05;3.95;;;;;;;19.11;46.74;97134.34;10448939;28;20045;-46
2023/06/05 05:02:40;;;;;;;8.35;3.88;;;;;;;18.95;47.67;97127.75;10421480;28;20050;-48
2023/06/05 05:08:01;;;;;;;4.75;4.10;;;;;;;18.89;48.49;97134.41;10393976;28;20438;-49
2023/06/05 05:13:21;;;;;;;5.32;4.03;;;;;;;18.86;49.05;97127.75;10437836;28;20501;-48
2023/06/05 05:18:43;;;;;;;6.88;3.90;;;;;;;18.95;47.82;97135.88;10440663;28;20041;-49
2023/06/05 05:24:03;;;;;;;6.32;3.83;;;;;;;19.05;47.32;97126.69;10373451;28;20057;-48
2023/06/05 05:29:23;;;;;;;4.78;3.20;;;;;;;19.11;47.03;97131.66;10427223;28;20103;-49
2023/06/05 05:34:42;;;;;;;6.07;3.35;;;;;;;19.15;46.55;97138.00;10379980;28;20034;-48
2023/06/05 05:40:03;;;;;;;8.00;3.85;;;;;;;19.20;46.63;97138.97;10440203;28;20049;-47
2023/06/05 05:45:23;;;;;;;6.65;3.50;;;;;;;19.23;46.58;97147.25;10380362;28;20053;-48
2023/06/05 05:50:42;;;;;;;6.32;3.70;;;;;;;19.27;46.63;97148.22;10396295;28;20077;-47
2023/06/05 05:56:03;;;;;;;10.80;4.40;;;;;;;19.30;46.69;97130.59;10379261;28;20042;-48
2023/06/05 06:01:22;;;;;;;12.63;5.22;;;;;;;19.31;46.55;97138.38;10379376;28;20041;-47
2023/06/05 06:06:42;;;;;;;16.83;6.05;;;;;;;19.34;46.66;97150.44;10366728;28;20058;-47
2023/06/05 06:12:05;;;;;;;20.80;6.70;;;;;;;19.36;46.96;97142.81;10381143;28;20379;-48
2023/06/05 06:17:27;;;;;;;17.80;6.80;;;;;;;19.38;46.97;97143.31;10399375;28;20117;-48
2023/06/05 06:22:46;;;;;;;16.33;6.60;;;;;;;19.39;46.97;97133.31;10375913;28;20057;-45
2023/06/05 06:28:06;;;;;;;15.52;7.25;;;;;;;19.40;46.94;97138.38;10383897;28;20435;-46
2023/06/05 06:33:25;;;;;;;17.52;6.93;;;;;;;19.41;46.94;97141.91;10390550;28;20052;-46
2023/06/05 06:38:45;;;;;;;17.25;6.82;;;;;;;19.41;46.99;97142.69;10379376;28;20041;-46
2023/06/05 06:44:05;;;;;;;17.08;6.45;;;;;;;19.44;46.81;97149.34;10383569;28;20042;-49
2023/06/05 06:49:25;;;;;;;17.75;7.18;;;;;;;19.44;46.84;97138.56;10400026;28;20049;-49
2023/06/05 06:54:44;;;;;;;13.45;6.50;;;;;;;19.45;46.78;97145.56;10383428;28;20058;-46
2023/06/05 07:00:09;;;;;;;14.52;6.03;;;;;;;19.45;46.75;97151.75;10382865;28;20122;-47
2023/06/05 07:05:29;;;;;;;15.70;6.25;;;;;;;19.45;46.86;97140.94;10383385;28;20049;-45
2023/06/05 07:10:49;;;;;;;12.77;5.45;;;;;;;19.46;46.74;97142.53;10438543;28;20042;-47
2023/06/05 07:16:08;;;;;;;13.40;6.38;;;;;;;19.47;46.79;97143.34;10388460;28;20042;-47
2023/06/05 07:21:28;;;;;;;13.48;5.93;;;;;;;19.47;46.79;97144.13;10370686;28;20104;-47
2023/06/05 07:26:47;;;;;;;10.70;5.50;;;;;;;19.49;46.71;97143.81;10406961;28;20467;-45
2023/06/05 07:32:07;;;;;;;12.90;5.40;;;;;;;19.49;46.98;97147.31;10384082;28;20053;-46
2023/06/05 07:37:26;;;;;;;14.32;5.43;;;;;;;19.51;46.71;97141.59;10373979;28;20045;-45
2023/06/05 07:42:46;;;;;;;10.30;5.32;;;;;;;19.51;46.79;97141.59;10389076;28;20050;-46
2023/06/05 07:48:06;;;;;;;13.45;6.05;;;;;;;19.51;46.77;97147.78;10385755;28;20048;-48
2023/06/05 07:53:25;;;;;;;11.30;5.60;;;;;;;19.51;46.72;97142.38;10375304;28;20050;-46
2023/06/05 07:58:46;;;;;;;9.40;4.97;;;;;;;19.51;46.88;97134.28;10383027;28;20407;-46
2023/06/05 08:04:07;;;;;;;10.70;5.93;;;;;;;19.51;46.72;97139.69;10393587;28;20046;-46
2023/06/05 08:09:26;;;;;;;9.55;4.95;;;;;;;19.51;46.71;97136.97;10396060;28;20042;-46
2023/06/05 08:14:45;;;;;;;8.65;5.28;;;;;;;19.52;46.64;97138.59;10386614;28;20034;-46
2023/06/05 08:20:07;;;;;;;12.48;5.30;;;;;;;19.53;46.81;97142.88;10395317;28;20071;-46
2023/06/05 08:25:27;;;;;;;9.43;4.95;;;;;;;19.53;46.77;97137.47;10415461;28;20049;-44
2023/06/05 08:30:47;;;;;;;8.43;4.95;;;;;;;19.53;46.69;97129.34;10381845;28;20042;-47
2023/06/05 08:36:06;;;;;;;10.05;5.05;;;;;;;19.54;46.78;97127.44;10376986;28;20053;-45
2023/06/05 08:41:26;;;;;;;9.05;5.07;;;;;;;19.53;46.77;97126.66;10381449;28;20379;-45
2023/06/05 08:46:46;;;;;;;7.20;4.40;;;;;;;19.54;46.88;97130.13;10387272;28;20447;-45
2023/06/05 08:52:07;;;;;;;8.75;4.85;;;;;;;19.54;46.89;97127.44;10377512;28;20058;-47
2023/06/05 08:57:28;;;;;;;10.70;4.53;;;;;;;19.55;47.00;97120.94;10437927;28;20091;-47
2023/06/05 09:02:48;;;;;;;9.02;4.30;;;;;;;19.55;46.96;97126.34;10392060;28;20052;-49
2023/06/05 09:08:08;;;;;;;7.47;4.53;;;;;;;19.55;46.95;97127.13;10380804;28;20129;-46
2023/06/05 09:13:44;;;;;;;7.10;4.32;;;;;;;19.55;46.95;97132.53;10380491;28;20087;-46
2023/06/05 09:19:04;;;;;;;9.77;3.92;;;;;;;19.56;47.01;97127.91;10389681;28;20046;-49
2023/06/05 09:24:26;;;;;;;6.75;4.00;;;;;;;19.56;47.12;97130.63;10390243;28;20490;-48
2023/06/05 09:29:45;;;;;;;6.57;4.10;;;;;;;19.55;47.04;97121.72;10380217;28;20057;-44
2023/06/05 09:35:06;;;;;;;7.18;4.00;;;;;;;19.56;46.99;97133.31;10391117;28;20069;-45
2023/06/05 09:40:38;;;;;;;7.95;4.10;;;;;;;19.56;46.98;97131.44;10379639;28;20106;-48
2023/06/05 09:45:58;;;;;;;7.63;4.50;;;;;;;19.55;47.01;97127.13;10360967;28;20046;-45
2023/06/05 09:51:18;;;;;;;7.15;4.07;;;;;;;19.55;47.03;97124.44;10372303;28;20060;-46
2023/06/05 09:56:40;;;;;;;8.18;4.40;;;;;;;19.54;46.96;97112.03;10400842;28;20038;-47
2023/06/05 10:02:05;;;;;;;6.95;4.00;;;;;;;19.55;47.08;97119.03;10386388;28;20049;-46
2023/06/05 10:07:26;;;;;;;7.60;4.10;;;;;;;19.54;47.08;97109.34;10405829;28;20057;-48
2023/06/05 10:12:46;;;;;;;5.70;4.10;;;;;;;19.55;47.06;97116.31;10386465;28;20046;-46
2023/06/05 10:18:06;;;;;;;6.32;4.05;;;;;;;19.54;47.05;97125.56;10386116;28;20046;-45
2023/06/05 10:23:26;;;;;;;6.82;4.03;;;;;;;19.54;47.02;97114.75;10395185;28;20111;-46
2023/06/05 10:28:58;;;;;;;5.45;3.97;;;;;;;19.54;47.08;97117.44;10379023;28;20099;-46
2023/06/05 10:34:27;;;;;;;5.60;3.92;;;;;;;19.55;47.22;97126.34;10443603;28;20053;-46
2023/06/05 10:39:49;;;;;;;5.28;3.72;;;;;;;19.56;47.08;97130.63;10372650;28;20049;-46
2023/06/05 10:45:09;;;;;;;4.65;3.53;;;;;;;19.55;47.18;97135.25;10443496;28;20045;-46
2023/06/05 10:50:31;;;;;;;5.43;4.00;;;;;;;19.56;47.14;97149.53;10385024;28;20106;-45
2023/06/05 10:55:51;;;;;;;6.72;3.72;;;;;;;19.55;47.19;97154.16;10421964;28;20046;-48
2023/06/05 11:01:22;;;;;;;5.57;3.78;;;;;;;19.55;47.16;97154.16;10387241;28;20041;-46
2023/06/05 11:07:13;;;;;;;4.78;3.53;;;;;;;19.54;47.35;97165.28;10451616;28;20045;-44
2023/06/05 11:12:39;;;;;;;4.82;3.67;;;;;;;19.55;47.20;97167.66;10444959;28;20045;-45
2023/06/05 11:18:32;;;;;;;4.38;3.60;;;;;;;19.54;47.31;97176.91;10378841;28;20048;-45
2023/06/05 11:24:16;;;;;;;4.82;3.45;;;;;;;19.55;47.39;97172.28;10373964;28;20050;-47
2023/06/05 11:29:37;;;;;;;4.25;3.22;;;;;;;19.54;47.50;97171.50;10370930;28;20049;-45
2023/06/05 11:34:57;;;;;;;5.72;3.70;;;;;;;19.55;47.36;97169.56;10443554;28;20046;-44
2023/06/05 11:40:26;;;;;;;4.68;3.40;;;;;;;19.54;47.46;97171.50;10388835;28;20494;-45
2023/06/05 11:45:54;;;;;;;4.50;3.50;;;;;;;19.55;47.51;97169.56;10386367;28;20038;-45
2023/06/05 11:51:13;;;;;;;4.43;3.50;;;;;;;19.53;47.66;97178.00;10395481;28;20053;-47
2023/06/05 11:56:33;;;;;;;5.25;3.38;;;;;;;19.54;47.65;97168.78;10385647;28;20038;-46
2023/06/05 12:01:54;;;;;;;5.00;3.50;;;;;;;19.53;47.72;97167.19;10382838;28;20099;-48
2023/06/05 12:07:13;;;;;;;3.95;3.45;;;;;;;19.53;47.74;97177.22;10375263;28;20045;-44
2023/06/05 12:12:34;;;;;;;4.38;3.50;;;;;;;19.54;48.05;97185.00;10381567;28;20045;-45
2023/06/05 12:17:55;;;;;;;4.50;3.13;;;;;;;19.53;47.92;97178.00;10399335;28;20049;-46
2023/06/05 12:23:21;;;;;;;5.03;3.47;;;;;;;19.54;47.87;97176.09;10388412;28;20037;-45
2023/06/05 12:28:40;;;;;;;5.18;3.40;;;;;;;19.53;47.93;97172.59;10397010;28;20046;-45
2023/06/05 12:33:59;;;;;;;3.75;3.35;;;;;;;19.53;47.96;97166.41;10453180;28;20041;-45
2023/06/05 12:39:19;;;;;;;4.90;3.55;;;;;;;19.53;48.03;97179.91;10378961;28;20069;-47
2023/06/05 12:44:39;;;;;;;3.45;3.15;;;;;;;19.53;48.12;97169.88;10383868;28;20042;-45
2023/06/05 12:49:59;;;;;;;4.25;3.40;;;;;;;19.53;48.04;97171.81;10368017;28;20053;-45
2023/06/05 12:55:19;;;;;;;4.95;3.75;;;;;;;19.51;48.21;97161.31;10381433;28;20483;-48
2023/06/05 13:00:39;;;;;;;4.45;3.40;;;;;;;19.52;48.14;97162.91;10383776;28;20050;-46
2023/06/05 13:05:59;;;;;;;4.68;3.30;;;;;;;19.52;48.16;97157.50;10438270;28;20057;-45
2023/06/05 13:11:19;;;;;;;3.50;3.20;;;;;;;19.51;48.06;97153.19;10437836;28;20074;-47
2023/06/05 13:16:39;;;;;;;3.97;3.15;;;;;;;19.51;48.32;97155.91;10383288;28;20068;-45
2023/06/05 13:21:59;;;;;;;4.20;3.55;;;;;;;19.52;48.34;97148.56;10380232;28;20050;-47
2023/06/05 13:27:20;;;;;;;4.28;3.30;;;;;;;19.51;48.19;97147.00;10377996;28;20046;-45
2023/06/05 13:32:41;;;;;;;4.75;3.30;;;;;;;19.50;48.31;97146.22;10369370;28;20033;-47
2023/06/05 13:38:00;;;;;;;4.63;3.55;;;;;;;19.51;48.35;97147.00;10380803;28;20041;-46
2023/06/05 13:43:19;;;;;;;3.95;3.35;;;;;;;19.51;48.57;97136.19;10366661;28;20054;-45
2023/06/05 13:48:39;;;;;;;3.97;3.30;;;;;;;19.51;48.51;97138.91;10382515;28;20122;-47
2023/06/05 13:53:59;;;;;;;4.50;3.63;;;;;;;19.52;48.46;97143.19;10381884;28;20076;-45
2023/06/05 13:59:18;;;;;;;3.80;3.15;;;;;;;19.50;48.54;97138.09;10398461;28;20049;-46
2023/06/05 14:04:38;;;;;;;4.95;3.40;;;;;;;19.50;48.53;97143.50;10387504;28;20540;-48
2023/06/05 14:09:58;;;;;;;4.90;3.30;;;;;;;19.49;48.62;97128.41;10416693;28;20045;-45
2023/06/05 14:15:19;;;;;;;3.80;3.40;;;;;;;19.49;48.68;97133.81;10370036;28;20049;-45
2023/06/05 14:20:38;;;;;;;3.90;3.50;;;;;;;19.49;48.79;97131.09;10381640;28;20488;-45
2023/06/05 14:25:58;;;;;;;3.78;3.15;;;;;;;19.49;48.73;97133.81;10368329;28;20161;-46
2023/06/05 14:31:17;;;;;;;3.63;3.33;;;;;;;19.49;48.80;97125.69;10389915;28;20042;-46
2023/06/05 14:36:37;;;;;;;5.03;2.88;;;;;;;19.50;48.80;97124.59;10374732;28;20063;-46
2023/06/05 14:41:57;;;;;;;4.45;3.40;;;;;;;19.47;49.13;97125.22;10374597;28;20042;-49
2023/06/05 14:47:16;;;;;;;3.88;3.10;;;;;;;19.48;49.24;97121.41;10400980;28;20052;-49
2023/06/05 14:52:36;;;;;;;4.15;3.22;;;;;;;19.47;49.36;97106.31;10388905;28;20065;-46
2023/06/05 14:57:56;;;;;;;4.70;3.35;;;;;;;19.49;49.40;97106.78;10373864;28;20038;-48
2023/06/05 15:03:16;;;;;;;4.22;3.38;;;;;;;19.48;49.55;97099.81;10373600;28;20054;-45
2023/06/05 15:08:35;;;;;;;4.68;3.30;;;;;;;19.48;49.80;97099.81;10374474;28;20049;-45
2023/06/05 15:13:55;;;;;;;4.05;3.20;;;;;;;19.49;49.66;97106.00;10386980;28;20038;-46
2023/06/05 15:19:15;;;;;;;9.45;3.10;;;;;;;19.49;49.75;97101.38;10389795;28;20076;-46
2023/06/05 15:24:35;;;;;;;9.40;5.43;;;;;;;19.46;50.00;97096.59;10392315;28;20037;-46
2023/06/05 15:29:54;;;;;;;45.83;17.38;;;;;;;19.48;50.08;97097.09;10411117;28;20041;-46
2023/06/05 15:35:15;;;;;;;35.53;14.85;;;;;;;19.47;50.23;97092.78;10404826;28;20082;-46
2023/06/05 15:40:35;;;;;;;57.10;21.75;;;;;;;19.46;50.56;97085.78;10383742;28;20038;-45
2023/06/05 15:45:54;;;;;;;37.17;15.45;;;;;;;19.46;51.08;97085.78;10378880;28;20037;-44
2023/06/05 15:51:14;;;;;;;35.50;14.68;;;;;;;19.46;50.86;97077.69;10492948;22;20060;-48
2023/06/05 16:02:11;;;;;;;29.58;11.60;;;;;;;19.47;51.11;97070.38;10227127;26;20044;-63
2023/06/05 16:07:31;;;;;;;29.35;11.50;;;;;;;19.46;51.75;97074.97;10429896;28;20045;-61
2023/06/05 16:12:51;;;;;;;24.10;10.02;;;;;;;19.47;51.24;97068.47;10429980;28;20042;-63
2023/06/05 16:18:11;;;;;;;18.13;9.05;;;;;;;19.46;52.22;97064.16;10429505;28;20048;-62
2023/06/05 16:23:30;;;;;;;19.30;8.80;;;;;;;19.46;51.55;97053.34;10429526;28;20489;-59
2023/06/05 16:28:50;;;;;;;16.98;7.70;;;;;;;19.45;52.09;97049.09;10428860;28;20481;-60
2023/06/05 16:34:11;;;;;;;18.55;7.70;;;;;;;19.45;52.46;97046.38;10413878;28;20038;-60
2023/06/05 16:39:31;;;;;;;17.15;6.80;;;;;;;19.46;51.85;97052.56;10417583;28;20547;-59
2023/06/05 16:44:50;;;;;;;14.15;6.88;;;;;;;19.45;51.36;97043.69;10428351;28;20074;-58
2023/06/05 16:50:10;;;;;;;13.18;6.30;;;;;;;19.44;51.18;97039.38;10428171;28;20049;-59
2023/06/05 16:55:30;;;;;;;13.45;6.45;;;;;;;19.44;51.04;97042.06;10427763;28;20497;-58
2023/06/05 17:00:50;;;;;;;12.30;6.45;;;;;;;19.44;50.87;97036.66;10407468;28;20133;-58
2023/06/05 17:06:09;;;;;;;9.88;6.20;;;;;;;19.44;51.61;97033.97;10427697;28;20041;-57
2023/06/05 17:11:29;;;;;;;11.40;6.28;;;;;;;19.45;51.60;97035.56;10427059;28;20041;-56
2023/06/05 17:16:49;;;;;;;11.70;6.25;;;;;;;19.45;52.35;97023.97;10426963;28;20045;-57
2023/06/05 17:22:09;;;;;;;13.95;5.93;;;;;;;19.44;52.05;97016.97;10427451;28;20052;-60
2023/06/05 17:27:30;;;;;;;13.65;5.85;;;;;;;19.44;51.78;97017.75;10426874;28;20045;-58
2023/06/05 17:32:49;;;;;;;10.32;5.28;;;;;;;19.45;51.58;97019.38;10427150;28;20040;-58
2023/06/05 17:38:09;;;;;;;10.07;5.47;;;;;;;19.44;51.38;97014.28;10427047;28;20103;-58
2023/06/05 17:43:29;;;;;;;10.50;5.18;;;;;;;19.44;51.96;97014.28;10415526;28;20493;-57
2023/06/05 17:48:48;;;;;;;10.25;5.30;;;;;;;19.44;52.32;97017.75;10414972;28;20053;-57
2023/06/05 17:54:07;;;;;;;11.10;5.22;;;;;;;19.46;52.29;97014.75;10426702;28;20500;-59
2023/06/05 17:59:27;;;;;;;9.73;5.10;;;;;;;19.45;52.44;97005.84;10412844;28;20081;-60
2023/06/05 18:04:46;;;;;;;12.55;5.45;;;;;;;19.46;52.72;97010.13;10419126;28;20408;-58
2023/06/05 18:10:06;;;;;;;9.23;4.38;;;;;;;19.46;52.88;97004.72;10420636;28;20100;-57
2023/06/05 18:15:26;;;;;;;12.95;4.80;;;;;;;19.46;52.80;97002.03;10434477;28;20046;-53
2023/06/05 18:20:45;;;;;;;10.07;4.72;;;;;;;19.47;52.70;97000.94;10420485;28;20037;-54
2023/06/05 18:26:05;;;;;;;16.25;4.78;;;;;;;19.46;53.14;97007.44;10420602;28;20057;-53
2023/06/05 18:31:25;;;;;;;9.35;4.38;;;;;;;19.46;53.03;97007.44;10433758;28;20049;-55
2023/06/05 18:36:44;;;;;;;10.35;4.43;;;;;;;19.47;52.88;97010.94;10413011;28;20049;-54
2023/06/05 18:42:06;;;;;;;10.20;4.95;;;;;;;19.46;52.95;96999.31;10433414;28;20075;-54
2023/06/05 18:47:25;;;;;;;8.75;4.80;;;;;;;19.47;52.92;97010.94;10433197;28;20037;-54
2023/06/05 18:52:44;;;;;;;8.80;4.78;;;;;;;19.45;53.07;97008.56;10420693;28;20037;-54
2023/06/05 18:58:05;;;;;;;10.43;4.55;;;;;;;19.46;53.11;97001.25;10430588;28;20045;-55
2023/06/05 19:03:24;;;;;;;10.95;4.63;;;;;;;19.45;52.79;97010.47;10432529;28;20034;-54
2023/06/05 19:08:47;;;;;;;7.45;4.05;;;;;;;19.45;52.35;97011.25;10424780;28;20493;-56
2023/06/05 19:14:06;;;;;;;7.38;3.97;;;;;;;19.43;51.98;97010.78;10432061;28;20071;-56
2023/06/05 19:19:26;;;;;;;8.20;4.53;;;;;;;19.42;52.04;97009.19;10431572;28;20041;-55
2023/06/05 19:24:45;;;;;;;6.60;4.00;;;;;;;19.43;51.96;97015.41;10431639;28;20053;-55
2023/06/05 19:30:07;;;;;;;6.55;3.88;;;;;;;19.43;52.24;97013.47;10431304;28;20052;-56
2023/06/05 19:35:26;;;;;;;5.22;3.95;;;;;;;19.42;52.56;97011.88;10418446;28;20057;-54
2023/06/05 19:40:49;;;;;;;6.90;4.20;;;;;;;19.44;52.78;97011.56;10424201;28;20087;-53
2023/06/05 19:46:10;;;;;;;5.65;4.15;;;;;;;19.43;52.99;97016.19;10430919;28;20159;-56
2023/06/05 19:51:30;;;;;;;8.02;3.90;;;;;;;19.43;52.89;97015.41;10430662;28;20037;-57
2023/06/05 19:56:50;;;;;;;8.40;4.45;;;;;;;19.44;53.07;97017.75;10417558;28;20060;-57
2023/06/05 20:02:10;;;;;;;17.48;4.57;;;;;;;19.44;53.29;97012.34;10416775;28;20057;-57
2023/06/05 20:07:29;;;;;;;6.93;4.05;;;;;;;19.44;52.95;97017.75;10430021;28;20046;-57
2023/06/05 20:12:49;;;;;;;6.55;4.20;;;;;;;19.44;53.31;97017.75;10430049;28;20037;-56
2023/06/05 20:18:08;;;;;;;7.47;4.30;;;;;;;19.45;53.47;97013.97;10429533;28;20049;-57
2023/06/05 20:23:29;;;;;;;10.07;5.20;;;;;;;19.45;53.46;97007.78;10416283;28;20076;-57
2023/06/05 20:28:49;;;;;;;8.48;4.53;;;;;;;19.43;53.25;97002.69;10429448;28;20052;-56
2023/06/05 20:34:09;;;;;;;9.45;4.90;;;;;;;19.43;53.38;97001.88;10415216;28;20053;-56
2023/06/05 20:39:30;;;;;;;8.40;4.50;;;;;;;19.43;53.42;97007.28;10428677;28;20041;-57
2023/06/05 20:44:49;;;;;;;7.88;4.53;;;;;;;19.43;53.35;97004.59;10429288;28;20045;-56
2023/06/05 20:50:09;;;;;;;8.30;4.10;;;;;;;19.43;53.40;97007.28;10428697;28;20053;-56
2023/06/05 20:55:29;;;;;;;8.43;4.68;;;;;;;19.41;53.25;97004.91;10428235;28;20091;-56
2023/06/05 21:00:49;;;;;;;5.90;3.97;;;;;;;19.42;53.23;97006.47;10411355;28;20460;-56
2023/06/05 21:06:08;;;;;;;7.10;4.13;;;;;;;19.41;53.34;96999.50;10428160;28;20041;-56
2023/06/05 21:11:27;;;;;;;5.85;3.92;;;;;;;19.41;53.21;96996.00;10427783;28;20041;-56
2023/06/05 21:16:47;;;;;;;5.50;3.42;;;;;;;19.41;53.28;97004.13;10427522;28;20044;-56
2023/06/05 21:22:08;;;;;;;9.07;3.75;;;;;;;19.41;53.17;97004.91;10427496;28;20056;-56
2023/06/05 21:27:27;;;;;;;5.18;3.63;;;;;;;19.40;53.19;97000.59;10412377;28;20045;-57
2023/06/05 21:32:47;;;;;;;5.65;3.63;;;;;;;19.40;53.23;96997.09;10427170;28;20038;-56
2023/06/05 21:38:06;;;;;;;5.07;3.60;;;;;;;19.39;53.11;96999.03;10426533;28;20049;-56
2023/06/05 21:43:25;;;;;;;9.15;3.67;;;;;;;19.41;53.12;96998.72;10426671;28;20486;-54
2023/06/05 21:48:45;;;;;;;5.55;3.78;;;;;;;19.40;53.09;96997.09;10426489;28;20044;-54
2023/06/05 21:54:04;;;;;;;4.72;3.60;;;;;;;19.39;53.01;96999.03;10411840;28;20042;-54
2023/06/05 21:59:24;;;;;;;6.05;3.65;;;;;;;19.39;53.10;96996.31;10420309;28;20069;-54
2023/06/05 22:04:46;;;;;;;4.57;3.35;;;;;;;19.40;53.05;96999.81;10426441;28;20172;-54
2023/06/05 22:10:06;;;;;;;4.90;3.40;;;;;;;19.38;53.06;96992.03;10421797;28;20041;-54
2023/06/05 22:15:26;;;;;;;5.88;3.35;;;;;;;19.38;52.88;96992.03;10426635;28;20539;-54
2023/06/05 22:20:45;;;;;;;5.28;3.60;;;;;;;19.38;52.98;96986.63;10426545;28;20068;-54
2023/06/05 22:26:06;;;;;;;5.63;3.05;;;;;;;19.38;53.01;96993.94;10426244;28;20034;-54
2023/06/05 22:31:26;;;;;;;4.88;3.30;;;;;;;19.37;52.92;96995.84;10425759;28;20049;-54
2023/06/05 22:36:46;;;;;;;4.15;3.10;;;;;;;19.37;52.86;96990.44;10425878;28;20049;-54
2023/06/05 22:42:07;;;;;;;5.63;3.72;;;;;;;19.37;52.81;96982.34;10425610;28;20493;-54
2023/06/05 22:47:28;;;;;;;5.95;3.17;;;;;;;19.36;52.81;96976.13;10425578;28;20056;-54
2023/06/05 22:52:50;;;;;;;4.95;3.42;;;;;;;19.37;52.80;96982.34;10425655;28;20041;-54
2023/06/05 22:58:09;;;;;;;4.30;3.17;;;;;;;19.38;52.79;96972.31;10430026;28;20100;-54
2023/06/05 23:03:33;;;;;;;4.63;3.28;;;;;;;19.36;52.85;96969.94;10432472;28;20103;-54
2023/06/05 23:08:52;;;;;;;4.68;3.03;;;;;;;19.35;52.79;96965.66;10418403;28;20037;-54
2023/06/05 23:14:12;;;;;;;4.63;3.30;;;;;;;19.35;52.78;96958.34;10432373;28;20045;-54
2023/06/05 23:19:32;;;;;;;4.05;2.90;;;;;;;19.35;52.85;96961.03;10418762;28;20053;-54
2023/06/05 23:24:52;;;;;;;3.97;3.10;;;;;;;19.35;52.77;96957.56;10431697;28;20045;-54
2023/06/05 23:30:11;;;;;;;3.65;2.90;;;;;;;19.34;52.85;96954.03;10418659;28;20111;-54
2023/06/05 23:35:31;;;;;;;4.03;2.95;;;;;;;19.35;52.71;96944.03;10431624;28;20041;-54
2023/06/05 23:40:50;;;;;;;3.83;2.97;;;;;;;19.34;52.73;96945.16;10431060;28;20072;-54
2023/06/05 23:46:10;;;;;;;3.45;2.88;;;;;;;19.34;52.71;96942.44;10430850;28;20515;-54
2023/06/05 23:51:30;;;;;;;4.60;3.33;;;;;;;19.34;52.65;96948.63;10430683;28;20072;-54
2023/06/05 23:56:50;;;;;;;3.05;2.67;;;;;;;19.34;52.77;96942.44;10418834;28;20037;-54
